createdAt,value
2023-01-29T00:00:32.684Z,1.00
2023-01-29T00:03:35.156Z,1.00
2023-01-29T00:06:36.818Z,1.00
2023-01-29T00:09:38.576Z,1.00
2023-01-29T00:12:40.226Z,1.00
2023-01-29T00:15:41.942Z,1.00
2023-01-29T00:18:43.884Z,1.00
2023-01-29T00:21:46.078Z,1.00
2023-01-29T00:24:47.630Z,1.00
2023-01-29T00:27:49.260Z,1.00
2023-01-29T00:30:50.833Z,0.90
2023-01-29T00:33:52.829Z,0.90
2023-01-29T00:37:04.771Z,0.90
2023-01-29T00:40:06.966Z,0.80
2023-01-29T00:43:27.187Z,0.70
2023-01-29T00:46:28.821Z,0.70
2023-01-29T00:49:38.179Z,0.70
2023-01-29T00:52:42.763Z,0.70
2023-01-29T00:55:44.987Z,0.60
2023-01-29T00:58:46.581Z,0.60
2023-01-29T01:02:06.841Z,0.60
2023-01-29T01:05:13.946Z,0.60
2023-01-29T01:08:34.196Z,0.60
2023-01-29T01:11:35.799Z,0.70
2023-01-29T01:14:37.393Z,0.70
2023-01-29T01:17:39.109Z,0.70
2023-01-29T01:20:41.499Z,0.80
2023-01-29T01:23:43.088Z,0.70
2023-01-29T01:26:44.710Z,0.70
2023-01-29T01:29:46.802Z,0.80
2023-01-29T01:32:48.451Z,0.70
2023-01-29T01:35:50.086Z,0.70
2023-01-29T01:38:51.745Z,0.70
2023-01-29T01:41:53.979Z,0.70
2023-01-29T01:45:06.289Z,0.70
2023-01-29T01:48:23.520Z,0.70
2023-01-29T01:51:28.547Z,0.80
2023-01-29T01:54:32.643Z,0.80
2023-01-29T01:57:34.280Z,0.90
2023-01-29T02:04:25.449Z,1.00
2023-01-29T02:07:46.001Z,0.90
2023-01-29T02:10:49.393Z,0.90
2023-01-29T02:13:53.568Z,0.80
2023-01-29T02:16:55.250Z,0.80
2023-01-29T02:20:18.153Z,0.80
2023-01-29T02:24:01.413Z,0.70
2023-01-29T02:27:19.346Z,0.60
2023-01-29T02:34:56.916Z,0.50
2023-01-29T02:38:30.631Z,0.40
2023-01-29T02:41:38.635Z,0.50
2023-01-29T02:45:01.858Z,0.50
2023-01-29T02:48:04.156Z,0.50
2023-01-29T02:51:13.827Z,0.50
2023-01-29T02:54:30.550Z,0.50
2023-01-29T02:57:38.963Z,0.60
2023-01-29T03:00:45.028Z,0.60
2023-01-29T03:03:52.538Z,0.60
2023-01-29T03:07:02.948Z,0.70
2023-01-29T03:10:11.781Z,0.70
2023-01-29T03:13:20.668Z,0.70
2023-01-29T03:16:32.811Z,0.70
2023-01-29T03:19:44.379Z,0.70
2023-01-29T03:22:51.171Z,0.70
2023-01-29T03:26:18.183Z,0.60
2023-01-29T03:29:38.500Z,0.60
2023-01-29T03:32:41.334Z,0.60
2023-01-29T03:35:51.972Z,0.50
2023-01-29T03:38:53.906Z,0.50
2023-01-29T03:42:13.350Z,0.60
2023-01-29T03:45:20.181Z,0.60
2023-01-29T03:48:37.995Z,0.70
2023-01-29T03:52:08.146Z,0.60
2023-01-29T03:55:24.841Z,0.60
2023-01-29T03:58:39.510Z,0.60
2023-01-29T04:02:10.151Z,0.60
2023-01-29T04:05:20.059Z,0.50
2023-01-29T04:08:27.506Z,0.50
2023-01-29T04:11:30.197Z,0.60
2023-01-29T04:14:32.663Z,0.60
2023-01-29T04:17:39.661Z,0.60
2023-01-29T04:20:44.050Z,0.60
2023-01-29T04:23:45.704Z,0.60
2023-01-29T04:27:21.213Z,0.60
2023-01-29T04:30:34.141Z,0.60
2023-01-29T04:33:46.907Z,0.60
2023-01-29T04:37:16.842Z,0.60
2023-01-29T04:40:20.493Z,0.60
2023-01-29T04:43:28.649Z,0.60
2023-01-29T04:46:41.914Z,0.50
2023-01-29T04:50:15.322Z,0.50
2023-01-29T04:53:37.707Z,0.50
2023-01-29T04:56:56.598Z,0.30
2023-01-29T05:00:02.339Z,0.40
2023-01-29T05:03:05.127Z,0.40
2023-01-29T05:06:09.642Z,0.50
2023-01-29T05:09:14.641Z,0.50
2023-01-29T05:12:17.760Z,0.60
2023-01-29T05:15:25.508Z,0.50
2023-01-29T05:18:28.395Z,0.50
2023-01-29T05:21:30.083Z,0.40
2023-01-29T05:24:31.662Z,0.40
2023-01-29T05:27:54.025Z,0.40
2023-01-29T05:30:58.718Z,0.50
2023-01-29T05:34:00.472Z,0.50
2023-01-29T05:37:02.183Z,0.50
2023-01-29T05:40:04.076Z,0.50
2023-01-29T05:43:13.863Z,0.50
2023-01-29T05:46:15.472Z,0.60
2023-01-29T05:49:18.144Z,0.60
2023-01-29T05:52:19.721Z,0.50
2023-01-29T05:55:21.290Z,0.40
2023-01-29T05:58:23.221Z,0.20
2023-01-29T06:01:25.895Z,0.20
2023-01-29T06:04:27.550Z,0.10
2023-01-29T06:07:29.227Z,0.10
2023-01-29T06:10:30.943Z,0.00
2023-01-29T06:13:32.549Z,0.00
2023-01-29T06:16:34.211Z,0.20
2023-01-29T06:19:35.811Z,0.20
2023-01-29T06:22:37.412Z,0.20
2023-01-29T06:25:39.039Z,0.20
2023-01-29T06:28:40.749Z,0.10
2023-01-29T06:31:42.470Z,0.20
2023-01-29T06:34:45.192Z,0.20
2023-01-29T06:37:46.823Z,0.20
2023-01-29T06:40:48.425Z,0.20
2023-01-29T06:43:52.551Z,0.30
2023-01-29T06:46:54.127Z,0.30
2023-01-29T06:49:55.780Z,0.40
2023-01-29T06:52:59.144Z,0.30
2023-01-29T06:56:00.885Z,0.30
2023-01-29T06:59:02.837Z,0.30
2023-01-29T07:02:04.607Z,0.20
2023-01-29T07:05:06.552Z,0.20
2023-01-29T07:08:09.523Z,0.20
2023-01-29T07:11:11.586Z,0.20
2023-01-29T07:14:13.209Z,0.10
2023-01-29T07:17:14.880Z,0.20
2023-01-29T07:20:16.881Z,0.20
2023-01-29T07:23:18.867Z,0.30
2023-01-29T07:26:20.662Z,0.30
2023-01-29T07:29:22.351Z,0.30
2023-01-29T07:32:23.990Z,0.40
2023-01-29T07:35:25.663Z,0.40
2023-01-29T07:38:27.264Z,0.40
2023-01-29T07:41:28.932Z,0.50
2023-01-29T07:44:30.569Z,0.50
2023-01-29T07:47:32.666Z,0.50
2023-01-29T07:50:35.479Z,0.50
2023-01-29T07:53:37.347Z,0.60
2023-01-29T07:56:38.961Z,0.60
2023-01-29T07:59:40.543Z,0.70
2023-01-29T08:02:42.251Z,0.70
2023-01-29T08:05:45.092Z,0.70
2023-01-29T08:08:46.764Z,0.90
2023-01-29T08:11:48.411Z,0.90
2023-01-29T08:14:50.178Z,0.90
2023-01-29T08:17:57.782Z,1.10
2023-01-29T08:21:03.285Z,1.10
2023-01-29T08:24:05.280Z,1.10
2023-01-29T08:27:06.936Z,1.10
2023-01-29T08:30:09.859Z,1.00
2023-01-29T08:33:11.607Z,1.10
2023-01-29T08:36:13.645Z,1.30
2023-01-29T08:39:15.360Z,1.40
2023-01-29T08:42:16.940Z,1.40
2023-01-29T08:45:18.612Z,1.40
2023-01-29T08:48:20.308Z,1.40
2023-01-29T08:51:22.181Z,1.50
2023-01-29T08:54:24.147Z,1.50
2023-01-29T08:57:25.742Z,1.70
2023-01-29T09:00:27.389Z,1.90
2023-01-29T09:03:29.020Z,2.00
2023-01-29T09:06:30.643Z,2.00
2023-01-29T09:09:32.766Z,1.90
2023-01-29T09:12:34.350Z,1.90
2023-01-29T09:15:36.023Z,1.90
2023-01-29T09:18:37.767Z,2.00
2023-01-29T09:21:39.364Z,1.90
2023-01-29T09:24:41.004Z,1.80
2023-01-29T09:27:42.632Z,1.80
2023-01-29T09:30:46.384Z,1.50
2023-01-29T09:33:51.191Z,1.30
2023-01-29T09:36:53.061Z,1.30
2023-01-29T09:39:54.813Z,1.30
2023-01-29T09:43:07.796Z,1.40
2023-01-29T09:46:30.183Z,1.40
2023-01-29T09:49:37.734Z,1.40
2023-01-29T09:52:46.475Z,1.30
2023-01-29T09:56:05.766Z,1.20
2023-01-29T09:59:11.903Z,1.10
2023-01-29T10:02:42.708Z,1.10
2023-01-29T10:06:12.989Z,0.90
2023-01-29T10:09:21.053Z,0.70
2023-01-29T10:12:57.899Z,0.90
2023-01-29T10:16:21.831Z,0.80
2023-01-29T10:19:41.752Z,0.90
2023-01-29T10:22:54.982Z,0.70
2023-01-29T10:25:56.921Z,0.70
2023-01-29T10:29:01.927Z,0.80
2023-01-29T10:32:05.859Z,1.00
2023-01-29T10:35:31.099Z,1.20
2023-01-29T10:38:45.960Z,1.40
2023-01-29T10:42:23.163Z,1.50
2023-01-29T10:46:12.390Z,1.50
2023-01-29T10:49:39.047Z,1.70
2023-01-29T10:53:21.635Z,1.80
2023-01-29T10:56:57.804Z,1.70
2023-01-29T11:00:19.954Z,1.60
2023-01-29T11:03:28.830Z,1.60
2023-01-29T11:06:36.069Z,1.60
2023-01-29T11:09:48.693Z,1.60
2023-01-29T11:12:51.064Z,1.80
2023-01-29T11:15:53.541Z,1.90
2023-01-29T11:18:58.693Z,1.90
2023-01-29T11:22:01.399Z,2.10
2023-01-29T11:25:17.233Z,2.00
2023-01-29T11:28:39.593Z,2.00
2023-01-29T11:31:41.295Z,2.00
2023-01-29T11:35:06.117Z,2.00
2023-01-29T11:38:27.651Z,2.20
2023-01-29T11:41:29.424Z,2.30
2023-01-29T11:44:40.999Z,2.50
2023-01-29T11:47:42.661Z,2.70
2023-01-29T11:50:50.959Z,2.50
2023-01-29T11:54:03.747Z,2.40
2023-01-29T11:57:13.417Z,2.30
2023-01-29T12:00:24.727Z,2.10
2023-01-29T12:03:44.276Z,2.40
2023-01-29T12:06:50.433Z,2.50
2023-01-29T12:09:57.864Z,2.40
2023-01-29T12:13:19.886Z,2.60
2023-01-29T12:16:44.302Z,2.60
2023-01-29T12:19:54.860Z,2.70
2023-01-29T12:23:12.224Z,2.70
2023-01-29T12:26:46.117Z,2.90
2023-01-29T12:30:06.177Z,3.00
2023-01-29T12:33:34.709Z,3.30
2023-01-29T12:36:53.013Z,3.40
2023-01-29T12:39:54.985Z,3.30
2023-01-29T12:43:01.629Z,3.30
2023-01-29T12:46:06.411Z,3.10
2023-01-29T12:49:17.331Z,2.70
2023-01-29T12:52:29.168Z,2.60
2023-01-29T12:55:53.834Z,2.70
2023-01-29T12:58:57.734Z,2.70
2023-01-29T13:02:13.018Z,2.70
2023-01-29T13:05:23.423Z,2.60
2023-01-29T13:08:35.961Z,2.60
2023-01-29T13:11:39.767Z,2.70
2023-01-29T13:15:08.314Z,2.80
2023-01-29T13:18:31.920Z,2.90
2023-01-29T13:21:40.173Z,2.80
2023-01-29T13:24:47.861Z,2.80
2023-01-29T13:27:51.817Z,2.50
2023-01-29T13:31:14.697Z,2.50
2023-01-29T13:34:29.298Z,2.40
2023-01-29T13:37:33.059Z,2.30
2023-01-29T13:40:34.783Z,2.30
2023-01-29T13:43:42.726Z,2.30
2023-01-29T13:47:02.536Z,2.30
2023-01-29T13:50:23.944Z,2.20
2023-01-29T13:53:35.533Z,2.10
2023-01-29T13:56:40.129Z,2.10
2023-01-29T13:59:56.366Z,2.00
2023-01-29T14:03:01.018Z,1.90
2023-01-29T14:06:02.981Z,2.00
2023-01-29T14:09:40.225Z,2.00
2023-01-29T14:12:43.333Z,2.10
2023-01-29T14:15:57.222Z,2.10
2023-01-29T14:19:05.001Z,2.20
2023-01-29T14:22:06.811Z,2.30
2023-01-29T14:25:18.026Z,2.20
2023-01-29T14:28:27.323Z,2.00
2023-01-29T14:31:52.140Z,2.00
2023-01-29T14:35:03.631Z,2.10
2023-01-29T14:38:18.187Z,2.20
2023-01-29T14:41:31.264Z,2.30
2023-01-29T14:44:44.766Z,2.20
2023-01-29T14:47:49.273Z,2.20
2023-01-29T14:50:54.136Z,2.20
2023-01-29T14:54:04.650Z,2.10
2023-01-29T14:57:12.629Z,2.00
2023-01-29T15:00:37.515Z,2.00
2023-01-29T15:03:58.567Z,2.00
2023-01-29T15:07:05.969Z,2.10
2023-01-29T15:10:23.175Z,2.10
2023-01-29T15:13:38.133Z,1.90
2023-01-29T15:16:55.828Z,1.90
2023-01-29T15:19:58.010Z,1.80
2023-01-29T15:23:03.228Z,1.90
2023-01-29T15:26:16.060Z,1.90
2023-01-29T15:29:24.294Z,1.90
2023-01-29T15:32:39.952Z,1.80
2023-01-29T15:35:43.103Z,1.80
2023-01-29T15:38:44.796Z,1.80
2023-01-29T15:41:47.403Z,1.70
2023-01-29T15:44:49.035Z,1.60
2023-01-29T15:47:51.750Z,1.60
2023-01-29T15:50:54.703Z,1.50
2023-01-29T15:54:15.632Z,1.40
2023-01-29T15:57:35.289Z,1.20
2023-01-29T16:00:37.616Z,1.20
2023-01-29T16:03:39.544Z,1.10
2023-01-29T16:06:42.675Z,1.00
2023-01-29T16:09:44.642Z,0.90
2023-01-29T16:12:51.240Z,0.80
2023-01-29T16:16:01.186Z,0.70
2023-01-29T16:19:21.389Z,0.60
2023-01-29T16:22:23.347Z,0.50
2023-01-29T16:25:25.131Z,0.40
2023-01-29T16:28:27.058Z,0.30
2023-01-29T16:31:31.489Z,0.30
2023-01-29T16:34:45.003Z,0.20
2023-01-29T16:37:51.283Z,0.20
2023-01-29T16:41:15.232Z,0.20
2023-01-29T16:44:16.876Z,0.10
2023-01-29T16:47:29.611Z,0.10
2023-01-29T16:50:40.566Z,0.00
2023-01-29T16:53:59.760Z,0.00
2023-01-29T16:57:01.979Z,0.00
2023-01-29T17:00:07.841Z,0.00
2023-01-29T17:03:13.194Z,-0.10
2023-01-29T17:06:26.497Z,-0.10
2023-01-29T17:09:34.412Z,-0.10
2023-01-29T17:12:38.555Z,-0.10
2023-01-29T17:15:43.216Z,-0.20
2023-01-29T17:18:44.816Z,-0.20
2023-01-29T17:21:47.107Z,-0.20
2023-01-29T17:24:51.376Z,-0.30
2023-01-29T17:27:53.205Z,-0.30
2023-01-29T17:31:05.958Z,-0.30
2023-01-29T17:34:14.385Z,-0.30
2023-01-29T17:37:16.795Z,-0.30
2023-01-29T17:40:39.310Z,-0.30
2023-01-29T17:43:41.216Z,-0.40
2023-01-29T17:46:43.400Z,-0.50
2023-01-29T17:49:45.024Z,-0.50
2023-01-29T17:52:46.640Z,-0.40
2023-01-29T17:55:49.269Z,-0.50
2023-01-29T17:58:50.909Z,-0.50
2023-01-29T18:01:53.417Z,-0.60
2023-01-29T18:04:55.576Z,-0.50
2023-01-29T18:07:57.744Z,-0.60
2023-01-29T18:11:00.968Z,-0.60
2023-01-29T18:14:07.566Z,-0.60
2023-01-29T18:17:17.434Z,-0.70
2023-01-29T18:20:25.667Z,-0.70
2023-01-29T18:23:29.370Z,-0.70
2023-01-29T18:26:31.019Z,-0.60
2023-01-29T18:29:32.674Z,-0.70
2023-01-29T18:32:34.547Z,-0.70
2023-01-29T18:35:36.186Z,-0.80
2023-01-29T18:38:37.786Z,-0.80
2023-01-29T18:41:39.475Z,-0.90
2023-01-29T18:44:41.105Z,-0.90
2023-01-29T18:47:42.743Z,-1.00
2023-01-29T18:50:44.428Z,-1.00
2023-01-29T18:53:50.917Z,-1.00
2023-01-29T18:57:06.302Z,-1.10
2023-01-29T19:00:14.425Z,-1.10
2023-01-29T19:03:16.340Z,-1.10
2023-01-29T19:06:17.984Z,-1.10
2023-01-29T19:09:20.702Z,-1.10
2023-01-29T19:12:23.126Z,-1.10
2023-01-29T19:15:24.856Z,-1.10
2023-01-29T19:18:27.793Z,-1.10
2023-01-29T19:21:30.329Z,-1.20
2023-01-29T19:24:36.223Z,-1.20
2023-01-29T19:27:37.959Z,-1.20
2023-01-29T19:30:39.567Z,-1.30
2023-01-29T19:33:41.420Z,-1.30
2023-01-29T19:36:43.057Z,-1.30
2023-01-29T19:39:44.669Z,-1.40
2023-01-29T19:42:46.651Z,-1.40
2023-01-29T19:45:49.559Z,-1.40
2023-01-29T19:48:54.454Z,-1.40
2023-01-29T19:51:58.916Z,-1.40
2023-01-29T19:55:02.156Z,-1.40
2023-01-29T19:58:04.699Z,-1.50
2023-01-29T20:01:14.281Z,-1.50
2023-01-29T20:04:15.973Z,-1.40
2023-01-29T20:07:19.785Z,-1.40
2023-01-29T20:10:21.602Z,-1.40
2023-01-29T20:13:23.506Z,-1.40
2023-01-29T20:16:26.365Z,-1.40
2023-01-29T20:19:28.051Z,-1.40
2023-01-29T20:22:29.934Z,-1.40
2023-01-29T20:25:31.544Z,-1.40
2023-01-29T20:28:33.305Z,-1.40
2023-01-29T20:31:35.088Z,-1.40
2023-01-29T20:34:36.748Z,-1.30
2023-01-29T20:37:38.495Z,-1.30
2023-01-29T20:40:40.470Z,-1.40
2023-01-29T20:43:43.146Z,-1.40
2023-01-29T20:46:45.443Z,-1.40
2023-01-29T20:49:47.026Z,-1.30
2023-01-29T20:52:48.764Z,-1.30
2023-01-29T20:55:50.421Z,-1.30
2023-01-29T20:58:52.183Z,-1.30
2023-01-29T21:01:53.875Z,-1.30
2023-01-29T21:04:56.545Z,-1.30
2023-01-29T21:07:58.163Z,-1.20
2023-01-29T21:10:59.787Z,-1.20
2023-01-29T21:14:01.861Z,-1.10
2023-01-29T21:17:04.810Z,-1.00
2023-01-29T21:20:11.065Z,-1.00
2023-01-29T21:23:12.836Z,-0.90
2023-01-29T21:26:14.493Z,-0.80
2023-01-29T21:29:16.139Z,-0.70
2023-01-29T21:32:18.897Z,-0.60
2023-01-29T21:35:20.635Z,-0.60
2023-01-29T21:38:22.347Z,-0.50
2023-01-29T21:41:44.636Z,-0.50
2023-01-29T21:44:46.256Z,-0.50
2023-01-29T21:47:48.044Z,-0.50
2023-01-29T21:50:49.974Z,-0.40
2023-01-29T21:53:51.562Z,-0.30
2023-01-29T21:56:53.176Z,-0.30
2023-01-29T21:59:55.162Z,-0.30
2023-01-29T22:02:56.930Z,-0.20
2023-01-29T22:05:58.628Z,-0.20
2023-01-29T22:09:00.356Z,-0.20
2023-01-29T22:12:02.294Z,-0.10
2023-01-29T22:15:04.827Z,-0.10
2023-01-29T22:18:06.566Z,-0.10
2023-01-29T22:21:08.280Z,-0.10
2023-01-29T22:24:10.080Z,-0.10
2023-01-29T22:27:15.351Z,-0.10
2023-01-29T22:30:17.735Z,0.00
2023-01-29T22:33:19.561Z,0.00
2023-01-29T22:36:21.294Z,0.00
2023-01-29T22:39:22.922Z,0.10
2023-01-29T22:42:24.589Z,0.10
2023-01-29T22:45:27.337Z,0.10
2023-01-29T22:48:30.515Z,0.10
2023-01-29T22:51:32.169Z,0.20
2023-01-29T22:54:33.722Z,0.20
2023-01-29T22:57:36.025Z,0.20
2023-01-29T23:00:37.590Z,0.20
2023-01-29T23:03:39.220Z,0.20
2023-01-29T23:06:40.825Z,0.30
2023-01-29T23:09:42.468Z,0.30
2023-01-29T23:12:44.115Z,0.30
2023-01-29T23:15:45.945Z,0.30
2023-01-29T23:18:50.906Z,0.40
2023-01-29T23:21:52.526Z,0.40
2023-01-29T23:24:54.192Z,0.40
2023-01-29T23:27:55.892Z,0.40
2023-01-29T23:30:57.670Z,0.40
2023-01-29T23:33:59.474Z,0.40
2023-01-29T23:37:01.146Z,0.40
2023-01-29T23:40:02.837Z,0.40
2023-01-29T23:43:04.515Z,0.50
2023-01-29T23:46:06.197Z,0.50
2023-01-29T23:49:08.465Z,0.50
2023-01-29T23:52:10.282Z,0.50
2023-01-29T23:55:11.945Z,0.60
2023-01-29T23:58:13.565Z,0.60
